sensor_id;sensor_type;location;lat;lon;timestamp;temperature;humidity
12043;DHT22;6082;49.306;12.862;2024-03-08T00:02:16;2.70;99.90
12043;DHT22;6082;49.306;12.862;2024-03-08T00:04:42;2.60;99.90
12043;DHT22;6082;49.306;12.862;2024-03-08T00:07:08;2.70;99.90
12043;DHT22;6082;49.306;12.862;2024-03-08T00:09:34;2.70;99.90
12043;DHT22;6082;49.306;12.862;2024-03-08T00:11:59;2.60;99.90
12043;DHT22;6082;49.306;12.862;2024-03-08T00:14:25;2.60;99.90
12043;DHT22;6082;49.306;12.862;2024-03-08T00:16:51;2.60;99.90
12043;DHT22;6082;49.306;12.862;2024-03-08T00:19:18;2.60;99.90
12043;DHT22;6082;49.306;12.862;2024-03-08T00:21:44;2.60;99.90
12043;DHT22;6082;49.306;12.862;2024-03-08T00:24:10;2.60;99.90
12043;DHT22;6082;49.306;12.862;2024-03-08T00:26:37;2.60;99.90
12043;DHT22;6082;49.306;12.862;2024-03-08T00:29:03;2.60;99.90
12043;DHT22;6082;49.306;12.862;2024-03-08T00:31:29;2.60;99.90
12043;DHT22;6082;49.306;12.862;2024-03-08T00:33:57;2.60;99.90
12043;DHT22;6082;49.306;12.862;2024-03-08T00:36:23;2.60;99.90
12043;DHT22;6082;49.306;12.862;2024-03-08T00:38:50;2.60;99.90
12043;DHT22;6082;49.306;12.862;2024-03-08T00:41:16;2.60;99.90
12043;DHT22;6082;49.306;12.862;2024-03-08T00:43:42;2.50;99.90
12043;DHT22;6082;49.306;12.862;2024-03-08T00:46:07;2.60;99.90
12043;DHT22;6082;49.306;12.862;2024-03-08T00:48:33;2.50;99.90
12043;DHT22;6082;49.306;12.862;2024-03-08T00:50:59;2.50;99.90
12043;DHT22;6082;49.306;12.862;2024-03-08T00:53:25;2.60;99.90
12043;DHT22;6082;49.306;12.862;2024-03-08T00:55:50;2.60;99.90
12043;DHT22;6082;49.306;12.862;2024-03-08T00:58:16;2.60;99.90
12043;DHT22;6082;49.306;12.862;2024-03-08T01:00:42;2.60;99.90
12043;DHT22;6082;49.306;12.862;2024-03-08T01:03:07;2.60;99.90
12043;DHT22;6082;49.306;12.862;2024-03-08T01:05:33;2.50;99.90
12043;DHT22;6082;49.306;12.862;2024-03-08T01:08:01;2.60;99.90
12043;DHT22;6082;49.306;12.862;2024-03-08T01:10:29;2.60;99.90
12043;DHT22;6082;49.306;12.862;2024-03-08T01:12:54;2.50;99.90
12043;DHT22;6082;49.306;12.862;2024-03-08T01:15:22;2.50;99.90
12043;DHT22;6082;49.306;12.862;2024-03-08T01:17:49;2.50;99.90
12043;DHT22;6082;49.306;12.862;2024-03-08T01:20:15;2.50;99.90
12043;DHT22;6082;49.306;12.862;2024-03-08T01:22:41;2.50;99.90
12043;DHT22;6082;49.306;12.862;2024-03-08T01:25:07;2.50;99.90
12043;DHT22;6082;49.306;12.862;2024-03-08T01:27:35;2.50;99.90
12043;DHT22;6082;49.306;12.862;2024-03-08T01:30:02;2.50;99.90
12043;DHT22;6082;49.306;12.862;2024-03-08T01:32:29;2.50;99.90
12043;DHT22;6082;49.306;12.862;2024-03-08T01:34:54;2.50;99.90
12043;DHT22;6082;49.306;12.862;2024-03-08T01:37:20;2.50;99.90
12043;DHT22;6082;49.306;12.862;2024-03-08T01:39:46;2.50;99.90
12043;DHT22;6082;49.306;12.862;2024-03-08T01:42:12;2.40;99.90
12043;DHT22;6082;49.306;12.862;2024-03-08T01:44:40;2.40;99.90
12043;DHT22;6082;49.306;12.862;2024-03-08T01:47:06;2.40;99.90
12043;DHT22;6082;49.306;12.862;2024-03-08T01:49:32;2.40;99.90
12043;DHT22;6082;49.306;12.862;2024-03-08T01:51:59;2.40;99.90
12043;DHT22;6082;49.306;12.862;2024-03-08T01:54:25;2.50;99.90
12043;DHT22;6082;49.306;12.862;2024-03-08T01:56:52;2.50;99.90
12043;DHT22;6082;49.306;12.862;2024-03-08T01:59:19;2.40;99.90
12043;DHT22;6082;49.306;12.862;2024-03-08T02:01:45;2.40;99.90
12043;DHT22;6082;49.306;12.862;2024-03-08T02:04:10;2.40;99.90
12043;DHT22;6082;49.306;12.862;2024-03-08T02:06:36;2.40;99.90
12043;DHT22;6082;49.306;12.862;2024-03-08T02:09:03;2.40;99.90
12043;DHT22;6082;49.306;12.862;2024-03-08T02:11:32;2.40;99.90
12043;DHT22;6082;49.306;12.862;2024-03-08T02:13:58;2.40;99.90
12043;DHT22;6082;49.306;12.862;2024-03-08T02:16:24;2.30;99.90
12043;DHT22;6082;49.306;12.862;2024-03-08T02:18:49;2.40;99.90
12043;DHT22;6082;49.306;12.862;2024-03-08T02:21:17;2.30;99.90
12043;DHT22;6082;49.306;12.862;2024-03-08T02:23:46;2.40;99.90
12043;DHT22;6082;49.306;12.862;2024-03-08T02:26:12;2.40;99.90
12043;DHT22;6082;49.306;12.862;2024-03-08T02:28:38;2.40;99.90
12043;DHT22;6082;49.306;12.862;2024-03-08T02:31:04;2.40;99.90
12043;DHT22;6082;49.306;12.862;2024-03-08T02:33:33;2.40;99.90
12043;DHT22;6082;49.306;12.862;2024-03-08T02:35:59;2.40;99.90
12043;DHT22;6082;49.306;12.862;2024-03-08T02:38:25;2.40;99.90
12043;DHT22;6082;49.306;12.862;2024-03-08T02:40:52;2.40;99.90
12043;DHT22;6082;49.306;12.862;2024-03-08T02:43:19;2.40;99.90
12043;DHT22;6082;49.306;12.862;2024-03-08T02:45:46;2.50;99.90
12043;DHT22;6082;49.306;12.862;2024-03-08T02:48:13;2.50;99.90
12043;DHT22;6082;49.306;12.862;2024-03-08T02:50:39;2.50;99.90
12043;DHT22;6082;49.306;12.862;2024-03-08T02:53:11;2.50;99.90
12043;DHT22;6082;49.306;12.862;2024-03-08T02:55:41;2.50;99.90
12043;DHT22;6082;49.306;12.862;2024-03-08T02:58:07;2.40;99.90
12043;DHT22;6082;49.306;12.862;2024-03-08T03:00:36;2.50;99.90
12043;DHT22;6082;49.306;12.862;2024-03-08T03:03:03;2.40;99.90
12043;DHT22;6082;49.306;12.862;2024-03-08T03:05:29;2.40;99.90
12043;DHT22;6082;49.306;12.862;2024-03-08T03:07:55;2.40;99.90
12043;DHT22;6082;49.306;12.862;2024-03-08T03:10:21;2.40;99.90
12043;DHT22;6082;49.306;12.862;2024-03-08T03:12:47;2.40;99.90
12043;DHT22;6082;49.306;12.862;2024-03-08T03:15:17;2.40;99.90
12043;DHT22;6082;49.306;12.862;2024-03-08T03:17:47;2.40;99.90
12043;DHT22;6082;49.306;12.862;2024-03-08T03:20:13;2.40;99.90
12043;DHT22;6082;49.306;12.862;2024-03-08T03:22:40;2.40;99.90
12043;DHT22;6082;49.306;12.862;2024-03-08T03:25:07;2.40;99.90
12043;DHT22;6082;49.306;12.862;2024-03-08T03:27:34;2.50;99.90
12043;DHT22;6082;49.306;12.862;2024-03-08T03:30:00;2.40;99.90
12043;DHT22;6082;49.306;12.862;2024-03-08T03:32:49;2.40;99.90
12043;DHT22;6082;49.306;12.862;2024-03-08T03:35:17;2.50;99.90
12043;DHT22;6082;49.306;12.862;2024-03-08T03:37:42;2.50;99.90
12043;DHT22;6082;49.306;12.862;2024-03-08T03:40:11;2.50;99.90
12043;DHT22;6082;49.306;12.862;2024-03-08T03:42:38;2.40;99.90
12043;DHT22;6082;49.306;12.862;2024-03-08T03:45:06;2.40;99.90
12043;DHT22;6082;49.306;12.862;2024-03-08T03:47:31;2.40;99.90
12043;DHT22;6082;49.306;12.862;2024-03-08T03:49:57;2.40;99.90
12043;DHT22;6082;49.306;12.862;2024-03-08T03:52:27;2.40;99.90
12043;DHT22;6082;49.306;12.862;2024-03-08T03:54:53;2.40;99.90
12043;DHT22;6082;49.306;12.862;2024-03-08T03:57:18;2.40;99.90
12043;DHT22;6082;49.306;12.862;2024-03-08T03:59:45;2.30;99.90
12043;DHT22;6082;49.306;12.862;2024-03-08T04:02:13;2.30;99.90
12043;DHT22;6082;49.306;12.862;2024-03-08T04:04:38;2.30;99.90
12043;DHT22;6082;49.306;12.862;2024-03-08T04:07:04;2.30;99.90
12043;DHT22;6082;49.306;12.862;2024-03-08T04:09:30;2.30;99.90
12043;DHT22;6082;49.306;12.862;2024-03-08T04:11:56;2.30;99.90
12043;DHT22;6082;49.306;12.862;2024-03-08T04:14:22;2.30;99.90
12043;DHT22;6082;49.306;12.862;2024-03-08T04:16:48;2.30;99.90
12043;DHT22;6082;49.306;12.862;2024-03-08T04:19:14;2.20;99.90
12043;DHT22;6082;49.306;12.862;2024-03-08T04:21:39;2.20;99.90
12043;DHT22;6082;49.306;12.862;2024-03-08T04:24:05;2.20;99.90
12043;DHT22;6082;49.306;12.862;2024-03-08T04:26:31;2.10;99.90
12043;DHT22;6082;49.306;12.862;2024-03-08T04:28:57;2.10;99.90
12043;DHT22;6082;49.306;12.862;2024-03-08T04:31:23;2.10;99.90
12043;DHT22;6082;49.306;12.862;2024-03-08T04:33:48;2.10;99.90
12043;DHT22;6082;49.306;12.862;2024-03-08T04:36:14;2.00;99.90
12043;DHT22;6082;49.306;12.862;2024-03-08T04:38:40;2.00;99.90
12043;DHT22;6082;49.306;12.862;2024-03-08T04:41:08;2.00;99.90
12043;DHT22;6082;49.306;12.862;2024-03-08T04:43:34;1.90;99.90
12043;DHT22;6082;49.306;12.862;2024-03-08T04:46:01;1.90;99.90
12043;DHT22;6082;49.306;12.862;2024-03-08T04:48:29;1.90;99.90
12043;DHT22;6082;49.306;12.862;2024-03-08T04:50:55;1.90;99.90
12043;DHT22;6082;49.306;12.862;2024-03-08T04:53:21;1.80;99.90
12043;DHT22;6082;49.306;12.862;2024-03-08T04:55:47;1.80;99.90
12043;DHT22;6082;49.306;12.862;2024-03-08T04:58:12;1.80;99.90
12043;DHT22;6082;49.306;12.862;2024-03-08T05:00:38;1.80;99.90
12043;DHT22;6082;49.306;12.862;2024-03-08T05:03:04;1.80;99.90
12043;DHT22;6082;49.306;12.862;2024-03-08T05:05:30;1.80;99.90
12043;DHT22;6082;49.306;12.862;2024-03-08T05:07:56;1.80;99.90
12043;DHT22;6082;49.306;12.862;2024-03-08T05:10:22;1.70;99.90
12043;DHT22;6082;49.306;12.862;2024-03-08T05:12:48;1.70;99.90
12043;DHT22;6082;49.306;12.862;2024-03-08T05:15:13;1.70;99.90
12043;DHT22;6082;49.306;12.862;2024-03-08T05:17:40;1.60;99.90
12043;DHT22;6082;49.306;12.862;2024-03-08T05:20:06;1.60;99.90
12043;DHT22;6082;49.306;12.862;2024-03-08T05:22:34;1.60;99.90
12043;DHT22;6082;49.306;12.862;2024-03-08T05:25:00;1.60;99.90
12043;DHT22;6082;49.306;12.862;2024-03-08T05:27:27;1.60;99.90
12043;DHT22;6082;49.306;12.862;2024-03-08T05:29:53;1.60;99.90
12043;DHT22;6082;49.306;12.862;2024-03-08T05:32:19;1.60;99.90
12043;DHT22;6082;49.306;12.862;2024-03-08T05:34:45;1.60;99.90
12043;DHT22;6082;49.306;12.862;2024-03-08T05:37:11;1.60;99.90
12043;DHT22;6082;49.306;12.862;2024-03-08T05:39:36;1.50;99.90
12043;DHT22;6082;49.306;12.862;2024-03-08T05:42:02;1.60;99.90
12043;DHT22;6082;49.306;12.862;2024-03-08T05:44:28;1.60;99.90
12043;DHT22;6082;49.306;12.862;2024-03-08T05:46:56;1.50;99.90
12043;DHT22;6082;49.306;12.862;2024-03-08T05:49:22;1.60;99.90
12043;DHT22;6082;49.306;12.862;2024-03-08T05:51:48;1.60;99.90
12043;DHT22;6082;49.306;12.862;2024-03-08T05:54:13;1.60;99.90
12043;DHT22;6082;49.306;12.862;2024-03-08T05:56:40;1.60;99.90
12043;DHT22;6082;49.306;12.862;2024-03-08T05:59:10;1.60;99.90
12043;DHT22;6082;49.306;12.862;2024-03-08T06:01:35;1.60;99.90
12043;DHT22;6082;49.306;12.862;2024-03-08T06:04:06;1.60;99.90
12043;DHT22;6082;49.306;12.862;2024-03-08T06:06:32;1.60;99.90
12043;DHT22;6082;49.306;12.862;2024-03-08T06:08:58;1.60;99.90
12043;DHT22;6082;49.306;12.862;2024-03-08T06:11:25;1.60;99.90
12043;DHT22;6082;49.306;12.862;2024-03-08T06:13:55;1.60;99.90
12043;DHT22;6082;49.306;12.862;2024-03-08T06:16:26;1.60;99.90
12043;DHT22;6082;49.306;12.862;2024-03-08T06:18:55;1.60;99.90
12043;DHT22;6082;49.306;12.862;2024-03-08T06:21:22;1.60;99.90
12043;DHT22;6082;49.306;12.862;2024-03-08T06:23:48;1.60;99.90
12043;DHT22;6082;49.306;12.862;2024-03-08T06:26:14;1.70;99.90
12043;DHT22;6082;49.306;12.862;2024-03-08T06:28:39;1.70;99.90
12043;DHT22;6082;49.306;12.862;2024-03-08T06:31:05;1.70;99.90
12043;DHT22;6082;49.306;12.862;2024-03-08T06:33:32;1.70;99.90
12043;DHT22;6082;49.306;12.862;2024-03-08T06:35:58;1.70;99.90
12043;DHT22;6082;49.306;12.862;2024-03-08T06:38:24;1.70;99.90
12043;DHT22;6082;49.306;12.862;2024-03-08T06:40:50;1.70;99.90
12043;DHT22;6082;49.306;12.862;2024-03-08T06:43:17;1.80;99.90
12043;DHT22;6082;49.306;12.862;2024-03-08T06:45:47;1.80;99.90
12043;DHT22;6082;49.306;12.862;2024-03-08T06:48:19;1.80;99.90
12043;DHT22;6082;49.306;12.862;2024-03-08T06:50:45;1.90;99.90
12043;DHT22;6082;49.306;12.862;2024-03-08T06:53:12;2.00;99.90
12043;DHT22;6082;49.306;12.862;2024-03-08T06:55:38;2.00;99.90
12043;DHT22;6082;49.306;12.862;2024-03-08T06:58:04;2.10;99.90
12043;DHT22;6082;49.306;12.862;2024-03-08T07:00:29;2.10;99.90
12043;DHT22;6082;49.306;12.862;2024-03-08T07:02:59;2.20;99.90
12043;DHT22;6082;49.306;12.862;2024-03-08T07:05:29;2.30;99.90
12043;DHT22;6082;49.306;12.862;2024-03-08T07:07:56;2.40;99.90
12043;DHT22;6082;49.306;12.862;2024-03-08T07:10:25;2.40;99.90
12043;DHT22;6082;49.306;12.862;2024-03-08T07:12:51;2.50;99.90
12043;DHT22;6082;49.306;12.862;2024-03-08T07:15:17;2.50;99.90
12043;DHT22;6082;49.306;12.862;2024-03-08T07:17:45;2.60;99.90
12043;DHT22;6082;49.306;12.862;2024-03-08T07:20:12;2.60;99.90
12043;DHT22;6082;49.306;12.862;2024-03-08T07:22:39;2.70;99.90
12043;DHT22;6082;49.306;12.862;2024-03-08T07:25:08;2.80;99.90
12043;DHT22;6082;49.306;12.862;2024-03-08T07:27:51;2.80;99.90
12043;DHT22;6082;49.306;12.862;2024-03-08T07:30:18;2.90;99.90
12043;DHT22;6082;49.306;12.862;2024-03-08T07:33:02;2.90;99.90
12043;DHT22;6082;49.306;12.862;2024-03-08T07:35:29;3.00;99.90
12043;DHT22;6082;49.306;12.862;2024-03-08T07:37:55;3.00;99.90
12043;DHT22;6082;49.306;12.862;2024-03-08T07:40:21;3.00;99.90
12043;DHT22;6082;49.306;12.862;2024-03-08T07:42:47;3.10;99.90
12043;DHT22;6082;49.306;12.862;2024-03-08T07:45:12;3.20;99.90
12043;DHT22;6082;49.306;12.862;2024-03-08T07:47:38;3.20;99.90
12043;DHT22;6082;49.306;12.862;2024-03-08T07:50:06;3.30;99.90
12043;DHT22;6082;49.306;12.862;2024-03-08T07:52:34;3.40;99.90
12043;DHT22;6082;49.306;12.862;2024-03-08T07:55:00;3.40;99.90
12043;DHT22;6082;49.306;12.862;2024-03-08T07:57:26;3.40;99.90
12043;DHT22;6082;49.306;12.862;2024-03-08T07:59:52;3.50;99.90
12043;DHT22;6082;49.306;12.862;2024-03-08T08:02:17;3.50;99.90
12043;DHT22;6082;49.306;12.862;2024-03-08T08:04:43;3.60;99.90
12043;DHT22;6082;49.306;12.862;2024-03-08T08:07:10;3.60;99.90
12043;DHT22;6082;49.306;12.862;2024-03-08T08:09:36;3.70;99.90
12043;DHT22;6082;49.306;12.862;2024-03-08T08:12:03;3.60;99.90
12043;DHT22;6082;49.306;12.862;2024-03-08T08:14:30;3.70;99.90
12043;DHT22;6082;49.306;12.862;2024-03-08T08:16:56;3.80;99.90
12043;DHT22;6082;49.306;12.862;2024-03-08T08:19:23;3.80;99.90
12043;DHT22;6082;49.306;12.862;2024-03-08T08:21:48;3.90;99.90
12043;DHT22;6082;49.306;12.862;2024-03-08T08:24:14;3.90;99.90
12043;DHT22;6082;49.306;12.862;2024-03-08T08:26:40;4.00;99.90
12043;DHT22;6082;49.306;12.862;2024-03-08T08:29:07;4.00;99.90
12043;DHT22;6082;49.306;12.862;2024-03-08T08:31:33;4.00;99.90
12043;DHT22;6082;49.306;12.862;2024-03-08T08:33:59;4.10;99.90
12043;DHT22;6082;49.306;12.862;2024-03-08T08:36:25;4.20;99.90
12043;DHT22;6082;49.306;12.862;2024-03-08T08:38:51;4.30;99.90
12043;DHT22;6082;49.306;12.862;2024-03-08T08:41:19;4.30;99.90
12043;DHT22;6082;49.306;12.862;2024-03-08T08:43:47;4.40;99.90
12043;DHT22;6082;49.306;12.862;2024-03-08T08:46:17;4.50;99.90
12043;DHT22;6082;49.306;12.862;2024-03-08T08:48:43;4.60;99.90
12043;DHT22;6082;49.306;12.862;2024-03-08T08:51:11;4.60;99.90
12043;DHT22;6082;49.306;12.862;2024-03-08T08:53:39;4.70;99.90
12043;DHT22;6082;49.306;12.862;2024-03-08T08:56:12;4.70;99.90
12043;DHT22;6082;49.306;12.862;2024-03-08T08:58:47;4.80;99.90
12043;DHT22;6082;49.306;12.862;2024-03-08T09:01:14;4.70;99.90
12043;DHT22;6082;49.306;12.862;2024-03-08T09:03:40;4.70;99.90
12043;DHT22;6082;49.306;12.862;2024-03-08T09:06:09;4.70;99.90
12043;DHT22;6082;49.306;12.862;2024-03-08T09:08:41;4.80;99.90
12043;DHT22;6082;49.306;12.862;2024-03-08T09:11:07;4.90;99.90
12043;DHT22;6082;49.306;12.862;2024-03-08T09:13:33;4.90;99.90
12043;DHT22;6082;49.306;12.862;2024-03-08T09:15:59;5.00;99.90
12043;DHT22;6082;49.306;12.862;2024-03-08T09:18:25;5.10;99.90
12043;DHT22;6082;49.306;12.862;2024-03-08T09:20:51;5.20;99.90
12043;DHT22;6082;49.306;12.862;2024-03-08T09:23:22;5.30;99.90
12043;DHT22;6082;49.306;12.862;2024-03-08T09:25:48;5.30;99.90
12043;DHT22;6082;49.306;12.862;2024-03-08T09:28:14;5.40;99.90
12043;DHT22;6082;49.306;12.862;2024-03-08T09:30:40;5.40;99.90
12043;DHT22;6082;49.306;12.862;2024-03-08T09:33:06;5.50;99.90
12043;DHT22;6082;49.306;12.862;2024-03-08T09:35:32;5.50;99.90
12043;DHT22;6082;49.306;12.862;2024-03-08T09:37:58;5.70;99.90
12043;DHT22;6082;49.306;12.862;2024-03-08T09:40:24;5.80;99.90
12043;DHT22;6082;49.306;12.862;2024-03-08T09:42:51;5.70;99.90
12043;DHT22;6082;49.306;12.862;2024-03-08T09:45:20;5.80;99.90
12043;DHT22;6082;49.306;12.862;2024-03-08T09:47:47;5.80;99.90
12043;DHT22;6082;49.306;12.862;2024-03-08T09:50:14;5.60;99.90
12043;DHT22;6082;49.306;12.862;2024-03-08T09:52:44;5.80;99.90
12043;DHT22;6082;49.306;12.862;2024-03-08T09:55:12;5.90;99.90
12043;DHT22;6082;49.306;12.862;2024-03-08T09:57:38;6.00;99.90
12043;DHT22;6082;49.306;12.862;2024-03-08T10:00:05;6.00;99.90
12043;DHT22;6082;49.306;12.862;2024-03-08T10:02:47;6.10;99.90
12043;DHT22;6082;49.306;12.862;2024-03-08T10:05:14;6.10;99.90
12043;DHT22;6082;49.306;12.862;2024-03-08T10:07:40;6.10;99.90
12043;DHT22;6082;49.306;12.862;2024-03-08T10:10:06;6.10;99.90
12043;DHT22;6082;49.306;12.862;2024-03-08T10:12:34;6.10;99.90
12043;DHT22;6082;49.306;12.862;2024-03-08T10:15:00;6.00;99.90
12043;DHT22;6082;49.306;12.862;2024-03-08T10:17:26;6.00;99.90
12043;DHT22;6082;49.306;12.862;2024-03-08T10:19:57;6.00;99.90
12043;DHT22;6082;49.306;12.862;2024-03-08T10:22:25;6.10;99.90
12043;DHT22;6082;49.306;12.862;2024-03-08T10:24:51;6.20;99.90
12043;DHT22;6082;49.306;12.862;2024-03-08T10:27:17;6.30;99.90
12043;DHT22;6082;49.306;12.862;2024-03-08T10:29:49;6.30;99.90
12043;DHT22;6082;49.306;12.862;2024-03-08T10:32:17;6.20;99.90
12043;DHT22;6082;49.306;12.862;2024-03-08T10:34:42;6.20;99.90
12043;DHT22;6082;49.306;12.862;2024-03-08T10:37:14;6.30;99.90
12043;DHT22;6082;49.306;12.862;2024-03-08T10:39:46;6.30;99.90
12043;DHT22;6082;49.306;12.862;2024-03-08T10:42:23;6.40;99.90
12043;DHT22;6082;49.306;12.862;2024-03-08T10:45:15;6.60;99.90
12043;DHT22;6082;49.306;12.862;2024-03-08T10:47:42;6.50;99.90
12043;DHT22;6082;49.306;12.862;2024-03-08T10:50:19;6.40;99.90
12043;DHT22;6082;49.306;12.862;2024-03-08T10:52:51;6.40;99.90
12043;DHT22;6082;49.306;12.862;2024-03-08T10:55:18;6.60;99.90
12043;DHT22;6082;49.306;12.862;2024-03-08T10:57:46;6.60;99.90
12043;DHT22;6082;49.306;12.862;2024-03-08T11:00:12;6.70;99.90
12043;DHT22;6082;49.306;12.862;2024-03-08T11:02:39;6.80;99.90
12043;DHT22;6082;49.306;12.862;2024-03-08T11:05:04;6.90;99.90
12043;DHT22;6082;49.306;12.862;2024-03-08T11:07:35;6.90;99.90
12043;DHT22;6082;49.306;12.862;2024-03-08T11:10:04;7.00;99.90
12043;DHT22;6082;49.306;12.862;2024-03-08T11:12:36;7.00;99.90
12043;DHT22;6082;49.306;12.862;2024-03-08T11:15:10;7.00;99.90
12043;DHT22;6082;49.306;12.862;2024-03-08T11:20:10;7.30;99.90
12043;DHT22;6082;49.306;12.862;2024-03-08T11:22:42;7.20;99.90
12043;DHT22;6082;49.306;12.862;2024-03-08T11:28:10;7.10;99.90
12043;DHT22;6082;49.306;12.862;2024-03-08T11:30:36;7.20;99.90
12043;DHT22;6082;49.306;12.862;2024-03-08T11:33:04;7.10;99.90
12043;DHT22;6082;49.306;12.862;2024-03-08T11:35:29;6.90;99.90
12043;DHT22;6082;49.306;12.862;2024-03-08T11:37:58;6.90;99.90
12043;DHT22;6082;49.306;12.862;2024-03-08T11:40:26;6.80;99.90
12043;DHT22;6082;49.306;12.862;2024-03-08T11:42:52;6.90;99.90
12043;DHT22;6082;49.306;12.862;2024-03-08T11:45:18;6.80;99.90
12043;DHT22;6082;49.306;12.862;2024-03-08T11:47:47;7.00;99.90
12043;DHT22;6082;49.306;12.862;2024-03-08T11:50:13;7.00;99.90
12043;DHT22;6082;49.306;12.862;2024-03-08T11:52:39;6.90;99.90
12043;DHT22;6082;49.306;12.862;2024-03-08T11:55:06;7.00;99.90
12043;DHT22;6082;49.306;12.862;2024-03-08T11:57:32;7.10;99.90
12043;DHT22;6082;49.306;12.862;2024-03-08T11:59:58;7.00;99.90
12043;DHT22;6082;49.306;12.862;2024-03-08T12:02:32;7.10;99.90
12043;DHT22;6082;49.306;12.862;2024-03-08T12:04:59;7.10;99.90
12043;DHT22;6082;49.306;12.862;2024-03-08T12:07:26;7.10;99.90
12043;DHT22;6082;49.306;12.862;2024-03-08T12:10:18;7.20;99.90
12043;DHT22;6082;49.306;12.862;2024-03-08T12:12:49;7.20;99.90
12043;DHT22;6082;49.306;12.862;2024-03-08T12:15:21;7.30;99.90
12043;DHT22;6082;49.306;12.862;2024-03-08T12:17:51;7.10;99.90
12043;DHT22;6082;49.306;12.862;2024-03-08T12:20:22;7.10;99.90
12043;DHT22;6082;49.306;12.862;2024-03-08T12:22:49;7.20;99.90
12043;DHT22;6082;49.306;12.862;2024-03-08T12:25:15;6.90;99.90
12043;DHT22;6082;49.306;12.862;2024-03-08T12:27:44;6.80;99.90
12043;DHT22;6082;49.306;12.862;2024-03-08T12:30:26;6.80;99.90
12043;DHT22;6082;49.306;12.862;2024-03-08T12:32:57;7.00;99.90
12043;DHT22;6082;49.306;12.862;2024-03-08T12:35:26;7.20;99.90
12043;DHT22;6082;49.306;12.862;2024-03-08T12:37:53;7.00;99.90
12043;DHT22;6082;49.306;12.862;2024-03-08T12:40:29;7.00;99.90
12043;DHT22;6082;49.306;12.862;2024-03-08T12:42:57;7.00;99.90
12043;DHT22;6082;49.306;12.862;2024-03-08T12:45:23;6.90;99.90
12043;DHT22;6082;49.306;12.862;2024-03-08T12:47:53;7.00;99.90
12043;DHT22;6082;49.306;12.862;2024-03-08T12:50:21;7.00;99.90
12043;DHT22;6082;49.306;12.862;2024-03-08T12:52:47;6.90;99.90
12043;DHT22;6082;49.306;12.862;2024-03-08T12:55:15;6.80;99.90
12043;DHT22;6082;49.306;12.862;2024-03-08T12:57:42;6.90;99.90
12043;DHT22;6082;49.306;12.862;2024-03-08T13:00:08;6.80;99.90
12043;DHT22;6082;49.306;12.862;2024-03-08T13:02:47;6.80;99.90
12043;DHT22;6082;49.306;12.862;2024-03-08T13:05:13;6.80;99.90
12043;DHT22;6082;49.306;12.862;2024-03-08T13:07:40;6.80;99.90
12043;DHT22;6082;49.306;12.862;2024-03-08T13:10:10;6.80;99.90
12043;DHT22;6082;49.306;12.862;2024-03-08T13:12:40;6.80;99.90
12043;DHT22;6082;49.306;12.862;2024-03-08T13:15:07;6.80;99.90
12043;DHT22;6082;49.306;12.862;2024-03-08T13:17:34;6.80;99.90
12043;DHT22;6082;49.306;12.862;2024-03-08T13:20:00;6.90;99.90
12043;DHT22;6082;49.306;12.862;2024-03-08T13:22:26;7.00;99.90
12043;DHT22;6082;49.306;12.862;2024-03-08T13:24:53;7.10;99.90
12043;DHT22;6082;49.306;12.862;2024-03-08T13:27:19;7.20;99.90
12043;DHT22;6082;49.306;12.862;2024-03-08T13:29:48;7.00;99.90
12043;DHT22;6082;49.306;12.862;2024-03-08T13:32:17;6.90;99.90
12043;DHT22;6082;49.306;12.862;2024-03-08T13:34:46;6.90;99.90
12043;DHT22;6082;49.306;12.862;2024-03-08T13:37:16;6.90;99.90
12043;DHT22;6082;49.306;12.862;2024-03-08T13:39:42;7.00;99.90
12043;DHT22;6082;49.306;12.862;2024-03-08T13:42:14;7.00;99.90
12043;DHT22;6082;49.306;12.862;2024-03-08T13:44:48;7.00;99.90
12043;DHT22;6082;49.306;12.862;2024-03-08T13:47:18;7.00;99.90
12043;DHT22;6082;49.306;12.862;2024-03-08T13:49:44;7.10;99.90
12043;DHT22;6082;49.306;12.862;2024-03-08T13:52:11;7.10;99.90
12043;DHT22;6082;49.306;12.862;2024-03-08T13:54:42;7.10;99.90
12043;DHT22;6082;49.306;12.862;2024-03-08T13:57:07;7.10;99.90
12043;DHT22;6082;49.306;12.862;2024-03-08T13:59:34;7.20;99.90
12043;DHT22;6082;49.306;12.862;2024-03-08T14:02:01;7.20;99.90
12043;DHT22;6082;49.306;12.862;2024-03-08T14:04:31;7.20;99.90
12043;DHT22;6082;49.306;12.862;2024-03-08T14:06:56;7.20;99.90
12043;DHT22;6082;49.306;12.862;2024-03-08T14:09:26;7.10;99.90
12043;DHT22;6082;49.306;12.862;2024-03-08T14:11:55;7.00;99.90
12043;DHT22;6082;49.306;12.862;2024-03-08T14:14:24;6.80;99.90
12043;DHT22;6082;49.306;12.862;2024-03-08T14:16:50;6.80;99.90
12043;DHT22;6082;49.306;12.862;2024-03-08T14:19:19;6.80;99.90
12043;DHT22;6082;49.306;12.862;2024-03-08T14:21:44;6.80;99.90
12043;DHT22;6082;49.306;12.862;2024-03-08T14:24:10;6.90;99.90
12043;DHT22;6082;49.306;12.862;2024-03-08T14:26:36;6.80;99.90
12043;DHT22;6082;49.306;12.862;2024-03-08T14:29:04;6.80;99.90
12043;DHT22;6082;49.306;12.862;2024-03-08T14:31:31;7.00;99.90
12043;DHT22;6082;49.306;12.862;2024-03-08T14:33:56;7.00;99.90
12043;DHT22;6082;49.306;12.862;2024-03-08T14:36:24;6.90;99.90
12043;DHT22;6082;49.306;12.862;2024-03-08T14:38:51;7.00;99.90
12043;DHT22;6082;49.306;12.862;2024-03-08T14:41:18;6.90;99.90
12043;DHT22;6082;49.306;12.862;2024-03-08T14:43:44;6.90;99.90
12043;DHT22;6082;49.306;12.862;2024-03-08T14:46:13;6.90;99.90
12043;DHT22;6082;49.306;12.862;2024-03-08T14:48:43;7.10;99.90
12043;DHT22;6082;49.306;12.862;2024-03-08T14:51:10;7.10;99.90
12043;DHT22;6082;49.306;12.862;2024-03-08T14:53:36;7.10;99.90
12043;DHT22;6082;49.306;12.862;2024-03-08T14:56:09;7.00;99.90
12043;DHT22;6082;49.306;12.862;2024-03-08T14:58:35;7.10;99.90
12043;DHT22;6082;49.306;12.862;2024-03-08T15:01:01;7.30;99.90
12043;DHT22;6082;49.306;12.862;2024-03-08T15:03:27;7.10;99.90
12043;DHT22;6082;49.306;12.862;2024-03-08T15:05:55;7.10;99.90
12043;DHT22;6082;49.306;12.862;2024-03-08T15:08:21;7.20;99.90
12043;DHT22;6082;49.306;12.862;2024-03-08T15:10:49;6.90;99.90
12043;DHT22;6082;49.306;12.862;2024-03-08T15:13:23;6.90;99.90
12043;DHT22;6082;49.306;12.862;2024-03-08T15:15:53;6.80;99.90
12043;DHT22;6082;49.306;12.862;2024-03-08T15:18:23;6.70;99.90
12043;DHT22;6082;49.306;12.862;2024-03-08T15:20:56;6.70;99.90
12043;DHT22;6082;49.306;12.862;2024-03-08T15:23:22;6.40;99.90
12043;DHT22;6082;49.306;12.862;2024-03-08T15:25:48;6.40;99.90
12043;DHT22;6082;49.306;12.862;2024-03-08T15:28:17;6.40;99.90
12043;DHT22;6082;49.306;12.862;2024-03-08T15:30:46;6.40;99.90
12043;DHT22;6082;49.306;12.862;2024-03-08T15:33:16;6.30;99.90
12043;DHT22;6082;49.306;12.862;2024-03-08T15:35:50;6.30;99.90
12043;DHT22;6082;49.306;12.862;2024-03-08T15:38:25;6.20;99.90
12043;DHT22;6082;49.306;12.862;2024-03-08T15:40:55;6.20;99.90
12043;DHT22;6082;49.306;12.862;2024-03-08T15:43:21;6.20;99.90
12043;DHT22;6082;49.306;12.862;2024-03-08T15:45:48;6.10;99.90
12043;DHT22;6082;49.306;12.862;2024-03-08T15:48:13;5.90;99.90
12043;DHT22;6082;49.306;12.862;2024-03-08T15:50:40;5.80;99.90
12043;DHT22;6082;49.306;12.862;2024-03-08T15:53:06;5.80;99.90